sensor_id;sensor_type;location;lat;lon;timestamp;pressure;altitude;pressure_sealevel;temperature;humidity
51031;BME280;37058;41.442;23.240;2023-05-25T00:02:11;100342.28;;;16.69;84.78
51031;BME280;37058;41.442;23.240;2023-05-25T00:04:40;100336.00;;;16.64;84.56
51031;BME280;37058;41.442;23.240;2023-05-25T00:07:06;100334.06;;;16.64;84.39
51031;BME280;37058;41.442;23.240;2023-05-25T00:09:33;100341.00;;;16.62;84.13
51031;BME280;37058;41.442;23.240;2023-05-25T00:11:59;100341.28;;;16.60;84.12
51031;BME280;37058;41.442;23.240;2023-05-25T00:14:26;100346.72;;;16.65;83.94
51031;BME280;37058;41.442;23.240;2023-05-25T00:16:52;100340.34;;;16.70;83.77
51031;BME280;37058;41.442;23.240;2023-05-25T00:19:18;100335.88;;;16.74;83.63
51031;BME280;37058;41.442;23.240;2023-05-25T00:21:44;100331.72;;;16.77;84.13
51031;BME280;37058;41.442;23.240;2023-05-25T00:24:12;100327.56;;;16.79;84.33
51031;BME280;37058;41.442;23.240;2023-05-25T00:26:38;100329.44;;;16.84;84.51
51031;BME280;37058;41.442;23.240;2023-05-25T00:29:04;100332.63;;;16.91;84.24
51031;BME280;37058;41.442;23.240;2023-05-25T00:31:31;100336.97;;;16.97;83.94
51031;BME280;37058;41.442;23.240;2023-05-25T00:33:58;100336.38;;;17.00;83.33
51031;BME280;37058;41.442;23.240;2023-05-25T00:36:25;100341.50;;;16.88;83.42
51031;BME280;37058;41.442;23.240;2023-05-25T00:38:51;100347.72;;;16.75;83.69
51031;BME280;37058;41.442;23.240;2023-05-25T00:41:17;100348.25;;;16.77;83.38
51031;BME280;37058;41.442;23.240;2023-05-25T00:43:46;100343.34;;;16.74;83.69
51031;BME280;37058;41.442;23.240;2023-05-25T00:46:15;100342.28;;;16.69;83.48
51031;BME280;37058;41.442;23.240;2023-05-25T00:48:42;100342.34;;;16.64;83.23
51031;BME280;37058;41.442;23.240;2023-05-25T00:51:09;100344.84;;;16.61;83.61
51031;BME280;37058;41.442;23.240;2023-05-25T00:53:35;100352.63;;;16.59;83.98
51031;BME280;37058;41.442;23.240;2023-05-25T00:56:14;100356.19;;;16.59;84.21
51031;BME280;37058;41.442;23.240;2023-05-25T00:58:45;100356.78;;;16.56;84.46
51031;BME280;37058;41.442;23.240;2023-05-25T01:01:14;100357.94;;;16.50;84.64
51031;BME280;37058;41.442;23.240;2023-05-25T01:03:43;100361.84;;;16.49;84.96
51031;BME280;37058;41.442;23.240;2023-05-25T01:06:14;100363.84;;;16.43;84.65
51031;BME280;37058;41.442;23.240;2023-05-25T01:08:46;100359.59;;;16.27;84.46
51031;BME280;37058;41.442;23.240;2023-05-25T01:11:14;100361.84;;;15.96;85.48
51031;BME280;37058;41.442;23.240;2023-05-25T01:13:41;100365.22;;;15.88;86.33
51031;BME280;37058;41.442;23.240;2023-05-25T01:16:08;100358.63;;;15.84;86.86
51031;BME280;37058;41.442;23.240;2023-05-25T01:18:34;100360.84;;;15.81;87.12
51031;BME280;37058;41.442;23.240;2023-05-25T01:21:20;100358.38;;;15.85;86.96
51031;BME280;37058;41.442;23.240;2023-05-25T01:24:02;100364.06;;;15.94;86.78
51031;BME280;37058;41.442;23.240;2023-05-25T01:26:41;100363.47;;;15.97;86.64
51031;BME280;37058;41.442;23.240;2023-05-25T01:29:10;100357.91;;;16.02;86.19
51031;BME280;37058;41.442;23.240;2023-05-25T01:31:38;100357.09;;;16.01;86.30
51031;BME280;37058;41.442;23.240;2023-05-25T01:34:05;100363.28;;;15.88;86.82
51031;BME280;37058;41.442;23.240;2023-05-25T01:36:32;100359.75;;;15.82;87.10
51031;BME280;37058;41.442;23.240;2023-05-25T01:38:58;100358.16;;;15.76;87.84
51031;BME280;37058;41.442;23.240;2023-05-25T01:41:24;100363.13;;;15.74;87.79
51031;BME280;37058;41.442;23.240;2023-05-25T01:43:51;100361.81;;;15.61;89.10
51031;BME280;37058;41.442;23.240;2023-05-25T01:46:36;100362.94;;;15.60;88.85
51031;BME280;37058;41.442;23.240;2023-05-25T01:49:30;100359.41;;;15.55;89.54
51031;BME280;37058;41.442;23.240;2023-05-25T01:52:25;100369.03;;;15.57;89.23
51031;BME280;37058;41.442;23.240;2023-05-25T01:55:02;100376.47;;;15.52;88.47
51031;BME280;37058;41.442;23.240;2023-05-25T01:57:35;100373.22;;;15.50;88.81
51031;BME280;37058;41.442;23.240;2023-05-25T02:00:02;100372.94;;;15.46;89.17
51031;BME280;37058;41.442;23.240;2023-05-25T02:02:30;100372.13;;;15.46;89.69
51031;BME280;37058;41.442;23.240;2023-05-25T02:04:57;100371.66;;;15.33;90.62
51031;BME280;37058;41.442;23.240;2023-05-25T02:07:24;100373.91;;;15.26;91.33
51031;BME280;37058;41.442;23.240;2023-05-25T02:09:50;100377.75;;;15.30;91.05
51031;BME280;37058;41.442;23.240;2023-05-25T02:12:16;100383.00;;;15.22;89.34
51031;BME280;37058;41.442;23.240;2023-05-25T02:14:42;100382.53;;;15.14;89.30
51031;BME280;37058;41.442;23.240;2023-05-25T02:17:08;100385.81;;;15.11;90.65
51031;BME280;37058;41.442;23.240;2023-05-25T02:19:34;100394.94;;;15.07;91.42
51031;BME280;37058;41.442;23.240;2023-05-25T02:22:00;100387.50;;;15.07;91.37
51031;BME280;37058;41.442;23.240;2023-05-25T02:24:26;100386.13;;;15.10;91.14
51031;BME280;37058;41.442;23.240;2023-05-25T02:26:51;100392.69;;;15.14;91.48
51031;BME280;37058;41.442;23.240;2023-05-25T02:29:17;100387.72;;;15.16;91.73
51031;BME280;37058;41.442;23.240;2023-05-25T02:31:43;100386.06;;;15.20;91.62
51031;BME280;37058;41.442;23.240;2023-05-25T02:34:09;100397.59;;;15.22;91.64
51031;BME280;37058;41.442;23.240;2023-05-25T02:36:36;100391.84;;;15.13;92.19
51031;BME280;37058;41.442;23.240;2023-05-25T02:39:02;100403.69;;;15.14;92.33
51031;BME280;37058;41.442;23.240;2023-05-25T02:41:28;100402.66;;;15.05;92.38
51031;BME280;37058;41.442;23.240;2023-05-25T02:43:54;100403.44;;;15.10;91.74
51031;BME280;37058;41.442;23.240;2023-05-25T02:46:20;100403.44;;;15.10;90.40
51031;BME280;37058;41.442;23.240;2023-05-25T02:48:47;100410.84;;;15.15;88.22
51031;BME280;37058;41.442;23.240;2023-05-25T02:51:13;100415.78;;;15.18;86.73
51031;BME280;37058;41.442;23.240;2023-05-25T02:53:39;100422.38;;;15.22;86.19
51031;BME280;37058;41.442;23.240;2023-05-25T02:56:05;100426.78;;;15.18;85.75
51031;BME280;37058;41.442;23.240;2023-05-25T02:58:31;100414.94;;;15.23;85.96
51031;BME280;37058;41.442;23.240;2023-05-25T03:00:57;100427.28;;;15.25;86.24
51031;BME280;37058;41.442;23.240;2023-05-25T03:03:26;100432.25;;;15.23;86.25
51031;BME280;37058;41.442;23.240;2023-05-25T03:05:52;100428.97;;;15.21;85.95
51031;BME280;37058;41.442;23.240;2023-05-25T03:08:18;100435.56;;;15.20;86.05
51031;BME280;37058;41.442;23.240;2023-05-25T03:10:44;100431.69;;;15.26;86.07
51031;BME280;37058;41.442;23.240;2023-05-25T03:13:10;100431.44;;;15.23;86.28
51031;BME280;37058;41.442;23.240;2023-05-25T03:15:36;100442.13;;;15.24;85.94
51031;BME280;37058;41.442;23.240;2023-05-25T03:18:02;100431.66;;;15.31;85.67
51031;BME280;37058;41.442;23.240;2023-05-25T03:20:29;100434.13;;;15.33;85.46
51031;BME280;37058;41.442;23.240;2023-05-25T03:22:55;100440.19;;;15.35;85.18
51031;BME280;37058;41.442;23.240;2023-05-25T03:25:21;100436.31;;;15.36;85.96
51031;BME280;37058;41.442;23.240;2023-05-25T03:27:47;100444.88;;;15.34;86.53
51031;BME280;37058;41.442;23.240;2023-05-25T03:30:16;100445.13;;;15.33;86.77
51031;BME280;37058;41.442;23.240;2023-05-25T03:32:41;100449.28;;;15.30;86.90
51031;BME280;37058;41.442;23.240;2023-05-25T03:35:08;100448.97;;;15.37;86.78
51031;BME280;37058;41.442;23.240;2023-05-25T03:37:33;100452.50;;;15.43;86.32
51031;BME280;37058;41.442;23.240;2023-05-25T03:39:59;100451.41;;;15.44;86.83
51031;BME280;37058;41.442;23.240;2023-05-25T03:42:25;100452.75;;;15.46;87.39
51031;BME280;37058;41.442;23.240;2023-05-25T03:44:51;100456.31;;;15.47;87.46
51031;BME280;37058;41.442;23.240;2023-05-25T03:47:17;100453.31;;;15.48;87.45
51031;BME280;37058;41.442;23.240;2023-05-25T03:49:42;100458.06;;;15.37;86.30
51031;BME280;37058;41.442;23.240;2023-05-25T03:52:08;100456.13;;;15.33;85.69
51031;BME280;37058;41.442;23.240;2023-05-25T03:54:34;100457.03;;;15.18;86.02
51031;BME280;37058;41.442;23.240;2023-05-25T03:57:00;100459.22;;;15.21;86.30
51031;BME280;37058;41.442;23.240;2023-05-25T03:59:28;100460.88;;;15.22;86.48
51031;BME280;37058;41.442;23.240;2023-05-25T04:01:54;100463.63;;;15.22;86.97
51031;BME280;37058;41.442;23.240;2023-05-25T04:04:20;100471.03;;;15.22;87.67
51031;BME280;37058;41.442;23.240;2023-05-25T04:06:46;100467.19;;;15.28;88.29
51031;BME280;37058;41.442;23.240;2023-05-25T04:09:14;100470.72;;;15.33;88.38
51031;BME280;37058;41.442;23.240;2023-05-25T04:11:40;100469.59;;;15.39;88.41
51031;BME280;37058;41.442;23.240;2023-05-25T04:14:06;100467.84;;;15.54;87.73
51031;BME280;37058;41.442;23.240;2023-05-25T04:16:31;100472.72;;;15.67;87.48
51031;BME280;37058;41.442;23.240;2023-05-25T04:18:57;100468.06;;;15.68;86.95
51031;BME280;37058;41.442;23.240;2023-05-25T04:21:23;100465.59;;;15.61;87.49
51031;BME280;37058;41.442;23.240;2023-05-25T04:23:49;100469.13;;;15.72;87.33
51031;BME280;37058;41.442;23.240;2023-05-25T04:26:15;100468.88;;;15.68;87.22
51031;BME280;37058;41.442;23.240;2023-05-25T04:28:41;100470.47;;;15.79;87.47
51031;BME280;37058;41.442;23.240;2023-05-25T04:31:07;100472.31;;;15.89;86.90
51031;BME280;37058;41.442;23.240;2023-05-25T04:33:34;100479.97;;;15.97;86.80
51031;BME280;37058;41.442;23.240;2023-05-25T04:36:04;100481.25;;;16.10;86.25
51031;BME280;37058;41.442;23.240;2023-05-25T04:38:30;100479.47;;;16.24;85.44
51031;BME280;37058;41.442;23.240;2023-05-25T04:40:58;100468.09;;;16.36;85.09
51031;BME280;37058;41.442;23.240;2023-05-25T04:43:27;100471.28;;;16.49;84.69
51031;BME280;37058;41.442;23.240;2023-05-25T04:45:55;100476.50;;;16.50;84.63
51031;BME280;37058;41.442;23.240;2023-05-25T04:48:21;100476.44;;;16.55;86.10
51031;BME280;37058;41.442;23.240;2023-05-25T04:50:49;100485.72;;;16.64;86.46
51031;BME280;37058;41.442;23.240;2023-05-25T04:53:15;100472.66;;;16.75;86.22
51031;BME280;37058;41.442;23.240;2023-05-25T04:55:41;100478.03;;;16.90;85.39
51031;BME280;37058;41.442;23.240;2023-05-25T04:58:07;100488.72;;;16.97;85.17
51031;BME280;37058;41.442;23.240;2023-05-25T05:00:33;100486.94;;;17.06;85.52
51031;BME280;37058;41.442;23.240;2023-05-25T05:02:59;100484.50;;;17.05;85.14
51031;BME280;37058;41.442;23.240;2023-05-25T05:05:25;100477.84;;;17.06;85.39
51031;BME280;37058;41.442;23.240;2023-05-25T05:07:51;100482.94;;;17.18;85.53
51031;BME280;37058;41.442;23.240;2023-05-25T05:10:18;100489.34;;;17.37;84.67
51031;BME280;37058;41.442;23.240;2023-05-25T05:12:44;100484.63;;;17.57;83.66
51031;BME280;37058;41.442;23.240;2023-05-25T05:15:10;100491.81;;;17.76;82.16
51031;BME280;37058;41.442;23.240;2023-05-25T05:17:36;100491.59;;;17.92;81.66
51031;BME280;37058;41.442;23.240;2023-05-25T05:20:03;100484.94;;;18.12;80.65
51031;BME280;37058;41.442;23.240;2023-05-25T05:22:32;100488.88;;;18.25;80.31
51031;BME280;37058;41.442;23.240;2023-05-25T05:24:58;100484.75;;;18.22;80.92
51031;BME280;37058;41.442;23.240;2023-05-25T05:27:24;100478.72;;;18.20;80.53
51031;BME280;37058;41.442;23.240;2023-05-25T05:29:53;100491.34;;;18.26;80.54
51031;BME280;37058;41.442;23.240;2023-05-25T05:32:18;100491.00;;;18.28;79.70
51031;BME280;37058;41.442;23.240;2023-05-25T05:34:44;100486.25;;;18.33;80.22
51031;BME280;37058;41.442;23.240;2023-05-25T05:37:10;100486.53;;;18.32;79.87
51031;BME280;37058;41.442;23.240;2023-05-25T05:39:36;100491.59;;;18.44;79.50
51031;BME280;37058;41.442;23.240;2023-05-25T05:42:02;100488.41;;;18.50;78.43
51031;BME280;37058;41.442;23.240;2023-05-25T05:44:28;100483.94;;;18.68;78.12
51031;BME280;37058;41.442;23.240;2023-05-25T05:46:55;100483.06;;;19.00;77.21
51031;BME280;37058;41.442;23.240;2023-05-25T05:49:28;100483.81;;;19.20;76.14
51031;BME280;37058;41.442;23.240;2023-05-25T05:51:54;100478.66;;;19.77;73.66
51031;BME280;37058;41.442;23.240;2023-05-25T05:54:20;100479.63;;;21.03;68.36
51031;BME280;37058;41.442;23.240;2023-05-25T05:56:46;100478.69;;;21.16;67.50
51031;BME280;37058;41.442;23.240;2023-05-25T05:59:11;100476.06;;;21.11;67.13
51031;BME280;37058;41.442;23.240;2023-05-25T06:01:37;100481.97;;;21.18;67.01
51031;BME280;37058;41.442;23.240;2023-05-25T06:04:05;100473.47;;;21.23;67.04
51031;BME280;37058;41.442;23.240;2023-05-25T06:06:32;100475.75;;;21.12;67.42
51031;BME280;37058;41.442;23.240;2023-05-25T06:09:00;100475.75;;;21.21;67.15
51031;BME280;37058;41.442;23.240;2023-05-25T06:11:28;100472.75;;;21.75;65.81
51031;BME280;37058;41.442;23.240;2023-05-25T06:13:54;100470.47;;;21.51;66.80
51031;BME280;37058;41.442;23.240;2023-05-25T06:16:20;100466.69;;;21.47;66.68
51031;BME280;37058;41.442;23.240;2023-05-25T06:18:46;100471.28;;;21.42;66.65
51031;BME280;37058;41.442;23.240;2023-05-25T06:21:12;100472.53;;;21.28;66.02
51031;BME280;37058;41.442;23.240;2023-05-25T06:23:37;100463.19;;;21.24;66.65
51031;BME280;37058;41.442;23.240;2023-05-25T06:26:06;100465.00;;;21.28;66.07
51031;BME280;37058;41.442;23.240;2023-05-25T06:28:32;100466.97;;;21.28;64.95
51031;BME280;37058;41.442;23.240;2023-05-25T06:30:58;100467.13;;;21.31;65.76
51031;BME280;37058;41.442;23.240;2023-05-25T06:33:24;100457.81;;;21.36;65.82
51031;BME280;37058;41.442;23.240;2023-05-25T06:35:50;100451.66;;;21.39;65.39
51031;BME280;37058;41.442;23.240;2023-05-25T06:38:17;100455.72;;;21.41;65.03
51031;BME280;37058;41.442;23.240;2023-05-25T06:40:43;100461.13;;;21.47;64.43
51031;BME280;37058;41.442;23.240;2023-05-25T06:43:09;100467.53;;;21.47;64.71
51031;BME280;37058;41.442;23.240;2023-05-25T06:45:35;100464.59;;;21.52;64.58
51031;BME280;37058;41.442;23.240;2023-05-25T06:48:00;100459.34;;;21.59;63.67
51031;BME280;37058;41.442;23.240;2023-05-25T06:50:26;100454.63;;;21.60;64.27
51031;BME280;37058;41.442;23.240;2023-05-25T06:52:52;100440.25;;;21.75;64.40
51031;BME280;37058;41.442;23.240;2023-05-25T06:55:18;100444.47;;;21.81;64.16
51031;BME280;37058;41.442;23.240;2023-05-25T06:57:44;100441.38;;;21.92;62.99
51031;BME280;37058;41.442;23.240;2023-05-25T07:00:11;100437.28;;;21.98;62.50
51031;BME280;37058;41.442;23.240;2023-05-25T07:02:38;100436.97;;;21.91;61.86
51031;BME280;37058;41.442;23.240;2023-05-25T07:05:05;100436.13;;;21.99;62.59
51031;BME280;37058;41.442;23.240;2023-05-25T07:07:32;100430.41;;;22.04;61.79
51031;BME280;37058;41.442;23.240;2023-05-25T07:09:58;100429.25;;;22.14;61.69
51031;BME280;37058;41.442;23.240;2023-05-25T07:12:24;100422.69;;;22.27;61.08
51031;BME280;37058;41.442;23.240;2023-05-25T07:14:50;100423.50;;;22.36;60.44
51031;BME280;37058;41.442;23.240;2023-05-25T07:17:16;100423.63;;;22.48;60.58
51031;BME280;37058;41.442;23.240;2023-05-25T07:19:41;100424.88;;;22.60;59.73
51031;BME280;37058;41.442;23.240;2023-05-25T07:22:08;100424.00;;;22.68;59.59
51031;BME280;37058;41.442;23.240;2023-05-25T07:24:35;100413.47;;;22.82;59.76
51031;BME280;37058;41.442;23.240;2023-05-25T07:27:02;100422.44;;;22.97;59.61
51031;BME280;37058;41.442;23.240;2023-05-25T07:29:28;100416.81;;;23.05;59.29
51031;BME280;37058;41.442;23.240;2023-05-25T07:31:54;100415.25;;;23.17;58.39
51031;BME280;37058;41.442;23.240;2023-05-25T07:34:20;100407.97;;;23.33;58.21
51031;BME280;37058;41.442;23.240;2023-05-25T07:36:46;100413.44;;;23.42;57.98
51031;BME280;37058;41.442;23.240;2023-05-25T07:39:12;100409.31;;;23.48;56.98
51031;BME280;37058;41.442;23.240;2023-05-25T07:41:38;100410.22;;;23.61;55.86
51031;BME280;37058;41.442;23.240;2023-05-25T07:44:04;100403.03;;;23.72;55.69
51031;BME280;37058;41.442;23.240;2023-05-25T07:46:30;100404.31;;;23.83;55.55
51031;BME280;37058;41.442;23.240;2023-05-25T07:48:56;100405.22;;;23.87;55.05
51031;BME280;37058;41.442;23.240;2023-05-25T07:51:25;100402.09;;;23.89;54.81
51031;BME280;37058;41.442;23.240;2023-05-25T07:53:53;100400.88;;;23.98;54.69
51031;BME280;37058;41.442;23.240;2023-05-25T07:56:21;100399.63;;;24.08;53.53
51031;BME280;37058;41.442;23.240;2023-05-25T07:58:48;100398.88;;;23.99;53.80
51031;BME280;37058;41.442;23.240;2023-05-25T08:01:14;100392.25;;;23.91;53.96
51031;BME280;37058;41.442;23.240;2023-05-25T08:03:43;100397.50;;;24.05;54.29
51031;BME280;37058;41.442;23.240;2023-05-25T08:06:09;100388.78;;;24.07;54.17
51031;BME280;37058;41.442;23.240;2023-05-25T08:08:36;100392.19;;;24.12;52.11
51031;BME280;37058;41.442;23.240;2023-05-25T08:11:02;100392.75;;;24.18;52.19
51031;BME280;37058;41.442;23.240;2023-05-25T08:13:28;100397.34;;;24.35;52.02
51031;BME280;37058;41.442;23.240;2023-05-25T08:15:53;100389.38;;;24.46;53.05
51031;BME280;37058;41.442;23.240;2023-05-25T08:18:19;100390.88;;;24.55;52.24
51031;BME280;37058;41.442;23.240;2023-05-25T08:20:45;100386.13;;;24.68;50.83
51031;BME280;37058;41.442;23.240;2023-05-25T08:23:11;100377.19;;;24.75;51.21
51031;BME280;37058;41.442;23.240;2023-05-25T08:25:37;100376.94;;;24.92;51.03
51031;BME280;37058;41.442;23.240;2023-05-25T08:28:04;100367.28;;;25.02;51.36
51031;BME280;37058;41.442;23.240;2023-05-25T08:30:29;100367.94;;;25.11;51.51
51031;BME280;37058;41.442;23.240;2023-05-25T08:32:56;100363.41;;;25.19;49.62
51031;BME280;37058;41.442;23.240;2023-05-25T08:35:22;100372.00;;;25.26;48.35
51031;BME280;37058;41.442;23.240;2023-05-25T08:37:48;100364.22;;;25.07;48.13
51031;BME280;37058;41.442;23.240;2023-05-25T08:40:16;100364.22;;;25.19;47.94
51031;BME280;37058;41.442;23.240;2023-05-25T08:42:44;100359.31;;;25.28;46.82
51031;BME280;37058;41.442;23.240;2023-05-25T08:45:11;100360.47;;;25.40;48.32
51031;BME280;37058;41.442;23.240;2023-05-25T08:47:41;100358.97;;;25.30;47.89
51031;BME280;37058;41.442;23.240;2023-05-25T08:50:09;100361.41;;;25.19;47.50
51031;BME280;37058;41.442;23.240;2023-05-25T08:52:38;100354.91;;;25.27;48.19
51031;BME280;37058;41.442;23.240;2023-05-25T08:55:07;100352.16;;;25.43;47.61
51031;BME280;37058;41.442;23.240;2023-05-25T09:00:15;100345.47;;;25.60;46.69
51031;BME280;37058;41.442;23.240;2023-05-25T09:03:08;100347.28;;;25.68;47.88
51031;BME280;37058;41.442;23.240;2023-05-25T09:05:35;100341.50;;;25.61;46.79
51031;BME280;37058;41.442;23.240;2023-05-25T09:08:05;100339.97;;;25.64;47.89
51031;BME280;37058;41.442;23.240;2023-05-25T09:10:33;100344.50;;;25.68;47.70
51031;BME280;37058;41.442;23.240;2023-05-25T09:13:00;100343.06;;;25.74;47.36
51031;BME280;37058;41.442;23.240;2023-05-25T09:15:26;100335.66;;;25.82;47.60
51031;BME280;37058;41.442;23.240;2023-05-25T09:17:52;100332.53;;;25.84;47.56
51031;BME280;37058;41.442;23.240;2023-05-25T09:20:18;100332.28;;;25.89;47.96
51031;BME280;37058;41.442;23.240;2023-05-25T09:22:46;100323.38;;;25.99;47.93
51031;BME280;37058;41.442;23.240;2023-05-25T09:25:18;100327.53;;;26.05;46.03
51031;BME280;37058;41.442;23.240;2023-05-25T09:27:48;100316.06;;;26.10;45.85
51031;BME280;37058;41.442;23.240;2023-05-25T09:30:14;100313.38;;;26.14;47.02
51031;BME280;37058;41.442;23.240;2023-05-25T09:32:40;100314.63;;;26.16;46.18
51031;BME280;37058;41.442;23.240;2023-05-25T09:35:12;100311.09;;;26.20;47.22
51031;BME280;37058;41.442;23.240;2023-05-25T09:37:39;100304.09;;;26.26;46.44
51031;BME280;37058;41.442;23.240;2023-05-25T09:40:06;100305.69;;;26.27;46.54
51031;BME280;37058;41.442;23.240;2023-05-25T09:42:34;100302.63;;;26.32;46.92
51031;BME280;37058;41.442;23.240;2023-05-25T09:45:02;100304.53;;;26.44;47.33
51031;BME280;37058;41.442;23.240;2023-05-25T09:47:28;100297.56;;;26.53;46.46
51031;BME280;37058;41.442;23.240;2023-05-25T09:49:58;100302.97;;;26.62;45.53
51031;BME280;37058;41.442;23.240;2023-05-25T09:52:25;100295.84;;;26.65;45.89
51031;BME280;37058;41.442;23.240;2023-05-25T09:54:52;100294.81;;;26.73;45.69
51031;BME280;37058;41.442;23.240;2023-05-25T09:57:19;100296.69;;;26.85;44.84
51031;BME280;37058;41.442;23.240;2023-05-25T09:59:46;100284.00;;;26.91;45.40
51031;BME280;37058;41.442;23.240;2023-05-25T10:02:13;100293.78;;;26.97;45.07
51031;BME280;37058;41.442;23.240;2023-05-25T10:04:39;100295.16;;;27.07;46.10
51031;BME280;37058;41.442;23.240;2023-05-25T10:07:07;100287.66;;;27.11;46.98
51031;BME280;37058;41.442;23.240;2023-05-25T10:09:39;100283.75;;;27.15;46.79
51031;BME280;37058;41.442;23.240;2023-05-25T10:12:08;100272.72;;;27.22;43.54
51031;BME280;37058;41.442;23.240;2023-05-25T10:14:36;100276.03;;;27.28;42.46
51031;BME280;37058;41.442;23.240;2023-05-25T10:17:05;100267.38;;;27.37;41.17
51031;BME280;37058;41.442;23.240;2023-05-25T10:19:45;100263.78;;;27.36;41.18
51031;BME280;37058;41.442;23.240;2023-05-25T10:25:16;100269.63;;;27.28;42.17
51031;BME280;37058;41.442;23.240;2023-05-25T10:27:59;100266.22;;;27.18;38.82
51031;BME280;37058;41.442;23.240;2023-05-25T10:30:26;100267.72;;;27.16;40.08
51031;BME280;37058;41.442;23.240;2023-05-25T10:32:54;100255.25;;;27.13;41.70
51031;BME280;37058;41.442;23.240;2023-05-25T10:35:22;100262.88;;;27.13;42.38
51031;BME280;37058;41.442;23.240;2023-05-25T10:37:52;100263.16;;;27.08;40.59
51031;BME280;37058;41.442;23.240;2023-05-25T10:40:22;100260.22;;;27.00;40.70
51031;BME280;37058;41.442;23.240;2023-05-25T10:42:52;100258.94;;;26.98;41.36
51031;BME280;37058;41.442;23.240;2023-05-25T10:45:17;100259.31;;;26.96;41.50
51031;BME280;37058;41.442;23.240;2023-05-25T10:47:44;100253.78;;;27.00;39.64
51031;BME280;37058;41.442;23.240;2023-05-25T10:50:25;100242.66;;;27.03;40.28
51031;BME280;37058;41.442;23.240;2023-05-25T10:53:12;100236.75;;;27.09;40.15
51031;BME280;37058;41.442;23.240;2023-05-25T10:55:48;100238.81;;;27.12;39.90
51031;BME280;37058;41.442;23.240;2023-05-25T10:58:16;100245.03;;;27.21;39.19
51031;BME280;37058;41.442;23.240;2023-05-25T11:00:42;100244.44;;;27.31;38.12
51031;BME280;37058;41.442;23.240;2023-05-25T11:03:21;100234.56;;;27.37;37.68
51031;BME280;37058;41.442;23.240;2023-05-25T11:05:49;100235.88;;;27.43;37.53
51031;BME280;37058;41.442;23.240;2023-05-25T11:08:15;100236.81;;;27.51;36.88
51031;BME280;37058;41.442;23.240;2023-05-25T11:13:36;100228.72;;;27.69;37.21
51031;BME280;37058;41.442;23.240;2023-05-25T11:16:22;100236.25;;;27.84;36.83
51031;BME280;37058;41.442;23.240;2023-05-25T11:18:54;100236.38;;;27.92;36.17
51031;BME280;37058;41.442;23.240;2023-05-25T11:21:40;100236.09;;;28.00;37.08
51031;BME280;37058;41.442;23.240;2023-05-25T11:24:16;100240.59;;;28.05;37.60
51031;BME280;37058;41.442;23.240;2023-05-25T11:26:54;100234.28;;;28.12;37.50
51031;BME280;37058;41.442;23.240;2023-05-25T11:29:21;100232.84;;;28.21;39.04
51031;BME280;37058;41.442;23.240;2023-05-25T11:31:52;100228.97;;;28.29;38.75
51031;BME280;37058;41.442;23.240;2023-05-25T11:34:22;100225.88;;;28.38;40.44
51031;BME280;37058;41.442;23.240;2023-05-25T11:36:56;100233.31;;;28.50;42.21
51031;BME280;37058;41.442;23.240;2023-05-25T11:39:22;100229.41;;;28.58;42.91
51031;BME280;37058;41.442;23.240;2023-05-25T11:41:55;100215.78;;;28.60;42.09
51031;BME280;37058;41.442;23.240;2023-05-25T11:44:33;100216.69;;;28.68;39.77
51031;BME280;37058;41.442;23.240;2023-05-25T11:47:05;100214.31;;;28.70;40.84
51031;BME280;37058;41.442;23.240;2023-05-25T11:49:34;100208.81;;;28.77;41.99
51031;BME280;37058;41.442;23.240;2023-05-25T11:52:05;100216.00;;;28.74;39.05
51031;BME280;37058;41.442;23.240;2023-05-25T11:54:32;100207.56;;;28.74;40.95
51031;BME280;37058;41.442;23.240;2023-05-25T11:56:58;100217.28;;;28.81;42.71
51031;BME280;37058;41.442;23.240;2023-05-25T11:59:25;100220.84;;;28.78;42.94
51031;BME280;37058;41.442;23.240;2023-05-25T12:02:02;100227.91;;;28.64;41.01
51031;BME280;37058;41.442;23.240;2023-05-25T12:04:30;100235.78;;;28.55;42.69
51031;BME280;37058;41.442;23.240;2023-05-25T12:07:06;100242.09;;;28.22;38.03
51031;BME280;37058;41.442;23.240;2023-05-25T12:09:33;100266.53;;;27.75;37.34
51031;BME280;37058;41.442;23.240;2023-05-25T12:12:02;100279.72;;;27.32;37.05
51031;BME280;37058;41.442;23.240;2023-05-25T12:14:29;100285.06;;;27.02;37.58
51031;BME280;37058;41.442;23.240;2023-05-25T12:16:55;100298.00;;;26.71;37.84
51031;BME280;37058;41.442;23.240;2023-05-25T12:19:22;100318.06;;;26.26;38.71
51031;BME280;37058;41.442;23.240;2023-05-25T12:21:48;100321.91;;;26.05;38.80
51031;BME280;37058;41.442;23.240;2023-05-25T12:24:17;100320.41;;;25.80;39.01
51031;BME280;37058;41.442;23.240;2023-05-25T12:26:51;100314.75;;;25.48;39.12
51031;BME280;37058;41.442;23.240;2023-05-25T12:29:24;100326.16;;;25.15;41.23
51031;BME280;37058;41.442;23.240;2023-05-25T12:31:51;100317.25;;;24.72;42.44
51031;BME280;37058;41.442;23.240;2023-05-25T12:34:18;100329.44;;;24.31;42.35
51031;BME280;37058;41.442;23.240;2023-05-25T12:36:46;100329.50;;;23.97;43.69
51031;BME280;37058;41.442;23.240;2023-05-25T12:39:30;100331.66;;;23.79;45.28
51031;BME280;37058;41.442;23.240;2023-05-25T12:41:57;100339.28;;;23.49;45.94
51031;BME280;37058;41.442;23.240;2023-05-25T12:49:35;100330.34;;;23.02;48.29
51031;BME280;37058;41.442;23.240;2023-05-25T12:52:04;100331.38;;;22.88;49.04
51031;BME280;37058;41.442;23.240;2023-05-25T12:54:43;100338.50;;;22.77;49.44
51031;BME280;37058;41.442;23.240;2023-05-25T12:57:15;100347.38;;;22.70;50.24
51031;BME280;37058;41.442;23.240;2023-05-25T12:59:44;100336.63;;;22.60;51.43